sensor_id;sensor_type;location;lat;lon;timestamp;P1;durP1;ratioP1;P2;durP2;ratioP2
13048;SDS011;6591;51.446;5.404;2022-09-09T00:00:34;1.63;;;1.20;;
13048;SDS011;6591;51.446;5.404;2022-09-09T00:09:21;1.53;;;1.30;;
13048;SDS011;6591;51.446;5.404;2022-09-09T00:11:58;1.53;;;1.10;;
13048;SDS011;6591;51.446;5.404;2022-09-09T00:14:53;1.37;;;1.10;;
13048;SDS011;6591;51.446;5.404;2022-09-09T00:18:02;1.83;;;1.03;;
13048;SDS011;6591;51.446;5.404;2022-09-09T00:23:30;1.43;;;1.10;;
13048;SDS011;6591;51.446;5.404;2022-09-09T00:29:33;1.23;;;1.00;;
13048;SDS011;6591;51.446;5.404;2022-09-09T00:32:20;1.30;;;1.20;;
13048;SDS011;6591;51.446;5.404;2022-09-09T00:37:50;1.70;;;1.30;;
13048;SDS011;6591;51.446;5.404;2022-09-09T00:40:24;2.13;;;1.10;;
13048;SDS011;6591;51.446;5.404;2022-09-09T00:43:12;3.33;;;1.00;;
13048;SDS011;6591;51.446;5.404;2022-09-09T00:46:14;2.03;;;1.10;;
13048;SDS011;6591;51.446;5.404;2022-09-09T00:49:37;1.13;;;1.00;;
13048;SDS011;6591;51.446;5.404;2022-09-09T00:58:24;1.73;;;1.30;;
13048;SDS011;6591;51.446;5.404;2022-09-09T01:03:52;2.13;;;1.30;;
13048;SDS011;6591;51.446;5.404;2022-09-09T01:06:25;1.33;;;1.10;;
13048;SDS011;6591;51.446;5.404;2022-09-09T01:12:33;1.97;;;1.30;;
13048;SDS011;6591;51.446;5.404;2022-09-09T01:15:12;1.90;;;1.47;;
13048;SDS011;6591;51.446;5.404;2022-09-09T01:20:38;4.93;;;1.43;;
13048;SDS011;6591;51.446;5.404;2022-09-09T01:23:56;2.13;;;1.43;;
13048;SDS011;6591;51.446;5.404;2022-09-09T01:26:54;2.83;;;1.20;;
13048;SDS011;6591;51.446;5.404;2022-09-09T01:29:27;2.53;;;1.47;;
13048;SDS011;6591;51.446;5.404;2022-09-09T01:32:00;2.63;;;1.20;;
13048;SDS011;6591;51.446;5.404;2022-09-09T01:34:49;2.00;;;1.50;;
13048;SDS011;6591;51.446;5.404;2022-09-09T01:37:18;3.20;;;1.30;;
13048;SDS011;6591;51.446;5.404;2022-09-09T01:39:45;1.50;;;1.40;;
13048;SDS011;6591;51.446;5.404;2022-09-09T01:42:15;2.07;;;1.40;;
13048;SDS011;6591;51.446;5.404;2022-09-09T01:44:44;1.60;;;1.40;;
13048;SDS011;6591;51.446;5.404;2022-09-09T01:47:11;1.87;;;1.40;;
13048;SDS011;6591;51.446;5.404;2022-09-09T01:50:11;1.93;;;1.30;;
13048;SDS011;6591;51.446;5.404;2022-09-09T01:52:46;2.83;;;1.60;;
13048;SDS011;6591;51.446;5.404;2022-09-09T01:55:32;1.83;;;1.30;;
13048;SDS011;6591;51.446;5.404;2022-09-09T02:03:51;2.63;;;1.30;;
13048;SDS011;6591;51.446;5.404;2022-09-09T02:06:27;2.83;;;1.43;;
13048;SDS011;6591;51.446;5.404;2022-09-09T02:09:21;3.10;;;1.80;;
13048;SDS011;6591;51.446;5.404;2022-09-09T02:11:58;2.30;;;1.50;;
13048;SDS011;6591;51.446;5.404;2022-09-09T02:14:48;2.03;;;1.33;;
13048;SDS011;6591;51.446;5.404;2022-09-09T02:17:32;1.70;;;1.43;;
13048;SDS011;6591;51.446;5.404;2022-09-09T02:20:10;2.60;;;1.53;;
13048;SDS011;6591;51.446;5.404;2022-09-09T02:22:49;2.80;;;1.43;;
13048;SDS011;6591;51.446;5.404;2022-09-09T02:25:21;2.63;;;1.57;;
13048;SDS011;6591;51.446;5.404;2022-09-09T02:27:57;5.43;;;1.40;;
13048;SDS011;6591;51.446;5.404;2022-09-09T02:30:28;2.37;;;1.40;;
13048;SDS011;6591;51.446;5.404;2022-09-09T02:33:01;2.37;;;1.33;;
13048;SDS011;6591;51.446;5.404;2022-09-09T02:35:50;2.20;;;1.83;;
13048;SDS011;6591;51.446;5.404;2022-09-09T02:38:22;2.67;;;1.50;;
13048;SDS011;6591;51.446;5.404;2022-09-09T02:41:01;2.57;;;1.50;;
13048;SDS011;6591;51.446;5.404;2022-09-09T02:43:31;2.07;;;1.30;;
13048;SDS011;6591;51.446;5.404;2022-09-09T02:49:02;1.63;;;1.40;;
13048;SDS011;6591;51.446;5.404;2022-09-09T02:51:48;2.10;;;1.50;;
13048;SDS011;6591;51.446;5.404;2022-09-09T02:54:33;1.83;;;1.20;;
13048;SDS011;6591;51.446;5.404;2022-09-09T02:57:10;1.73;;;1.37;;
13048;SDS011;6591;51.446;5.404;2022-09-09T02:59:48;3.43;;;1.60;;
13048;SDS011;6591;51.446;5.404;2022-09-09T03:02:18;4.23;;;1.60;;
13048;SDS011;6591;51.446;5.404;2022-09-09T03:04:51;3.00;;;1.60;;
13048;SDS011;6591;51.446;5.404;2022-09-09T03:07:19;1.90;;;1.40;;
13048;SDS011;6591;51.446;5.404;2022-09-09T03:09:50;3.93;;;1.50;;
13048;SDS011;6591;51.446;5.404;2022-09-09T03:12:17;4.90;;;1.60;;
13048;SDS011;6591;51.446;5.404;2022-09-09T03:14:44;2.10;;;1.70;;
13048;SDS011;6591;51.446;5.404;2022-09-09T03:17:12;3.00;;;1.70;;
13048;SDS011;6591;51.446;5.404;2022-09-09T03:19:48;1.90;;;1.63;;
13048;SDS011;6591;51.446;5.404;2022-09-09T03:22:16;2.00;;;1.70;;
13048;SDS011;6591;51.446;5.404;2022-09-09T03:24:44;1.90;;;1.60;;
13048;SDS011;6591;51.446;5.404;2022-09-09T03:27:13;2.57;;;1.80;;
13048;SDS011;6591;51.446;5.404;2022-09-09T03:29:44;5.00;;;1.67;;
13048;SDS011;6591;51.446;5.404;2022-09-09T03:32:18;2.93;;;1.50;;
13048;SDS011;6591;51.446;5.404;2022-09-09T03:34:48;1.77;;;1.40;;
13048;SDS011;6591;51.446;5.404;2022-09-09T03:37:16;5.40;;;1.50;;
13048;SDS011;6591;51.446;5.404;2022-09-09T03:39:47;3.27;;;1.53;;
13048;SDS011;6591;51.446;5.404;2022-09-09T03:42:16;2.17;;;1.30;;
13048;SDS011;6591;51.446;5.404;2022-09-09T03:44:47;2.67;;;1.30;;
13048;SDS011;6591;51.446;5.404;2022-09-09T03:47:18;2.87;;;1.60;;
13048;SDS011;6591;51.446;5.404;2022-09-09T03:49:50;3.00;;;1.40;;
13048;SDS011;6591;51.446;5.404;2022-09-09T03:52:17;2.30;;;1.27;;
13048;SDS011;6591;51.446;5.404;2022-09-09T03:54:49;3.50;;;1.50;;
13048;SDS011;6591;51.446;5.404;2022-09-09T03:57:17;1.80;;;1.50;;
13048;SDS011;6591;51.446;5.404;2022-09-09T03:59:44;2.20;;;1.30;;
13048;SDS011;6591;51.446;5.404;2022-09-09T04:02:11;2.47;;;1.50;;
13048;SDS011;6591;51.446;5.404;2022-09-09T04:04:38;1.90;;;1.60;;
13048;SDS011;6591;51.446;5.404;2022-09-09T04:07:05;1.93;;;1.33;;
13048;SDS011;6591;51.446;5.404;2022-09-09T04:09:33;3.77;;;1.70;;
13048;SDS011;6591;51.446;5.404;2022-09-09T04:12:01;3.67;;;1.90;;
13048;SDS011;6591;51.446;5.404;2022-09-09T04:14:29;2.73;;;1.50;;
13048;SDS011;6591;51.446;5.404;2022-09-09T04:16:57;5.70;;;1.80;;
13048;SDS011;6591;51.446;5.404;2022-09-09T04:19:26;5.05;;;1.48;;
13048;SDS011;6591;51.446;5.404;2022-09-09T04:21:53;3.27;;;1.70;;
13048;SDS011;6591;51.446;5.404;2022-09-09T04:24:21;1.70;;;1.60;;
13048;SDS011;6591;51.446;5.404;2022-09-09T04:26:49;3.13;;;1.48;;
13048;SDS011;6591;51.446;5.404;2022-09-09T04:29:16;2.35;;;1.80;;
13048;SDS011;6591;51.446;5.404;2022-09-09T04:31:43;5.78;;;1.95;;
13048;SDS011;6591;51.446;5.404;2022-09-09T04:34:11;3.70;;;1.90;;
13048;SDS011;6591;51.446;5.404;2022-09-09T04:36:39;3.20;;;1.73;;
13048;SDS011;6591;51.446;5.404;2022-09-09T04:39:07;3.43;;;1.77;;
13048;SDS011;6591;51.446;5.404;2022-09-09T04:41:34;5.83;;;1.90;;
13048;SDS011;6591;51.446;5.404;2022-09-09T04:44:04;7.67;;;1.67;;
13048;SDS011;6591;51.446;5.404;2022-09-09T04:46:32;2.50;;;1.60;;
13048;SDS011;6591;51.446;5.404;2022-09-09T04:49:00;2.63;;;1.63;;
13048;SDS011;6591;51.446;5.404;2022-09-09T04:51:30;3.60;;;2.00;;
13048;SDS011;6591;51.446;5.404;2022-09-09T04:53:58;2.83;;;1.90;;
13048;SDS011;6591;51.446;5.404;2022-09-09T04:56:25;3.57;;;1.87;;
13048;SDS011;6591;51.446;5.404;2022-09-09T04:58:58;3.43;;;1.90;;
13048;SDS011;6591;51.446;5.404;2022-09-09T05:01:35;3.70;;;1.73;;
13048;SDS011;6591;51.446;5.404;2022-09-09T05:04:04;4.10;;;1.80;;
13048;SDS011;6591;51.446;5.404;2022-09-09T05:06:32;3.77;;;1.90;;
13048;SDS011;6591;51.446;5.404;2022-09-09T05:09:00;4.40;;;2.10;;
13048;SDS011;6591;51.446;5.404;2022-09-09T05:11:30;4.43;;;1.60;;
13048;SDS011;6591;51.446;5.404;2022-09-09T05:14:10;3.17;;;1.70;;
13048;SDS011;6591;51.446;5.404;2022-09-09T05:16:39;4.43;;;1.50;;
13048;SDS011;6591;51.446;5.404;2022-09-09T05:19:06;5.37;;;1.80;;
13048;SDS011;6591;51.446;5.404;2022-09-09T05:21:45;3.10;;;1.60;;
13048;SDS011;6591;51.446;5.404;2022-09-09T05:24:16;5.17;;;1.70;;
13048;SDS011;6591;51.446;5.404;2022-09-09T05:26:45;4.20;;;1.85;;
13048;SDS011;6591;51.446;5.404;2022-09-09T05:29:12;3.57;;;1.70;;
13048;SDS011;6591;51.446;5.404;2022-09-09T05:31:39;3.72;;;1.60;;
13048;SDS011;6591;51.446;5.404;2022-09-09T05:34:11;2.90;;;1.80;;
13048;SDS011;6591;51.446;5.404;2022-09-09T05:36:38;4.17;;;1.80;;
13048;SDS011;6591;51.446;5.404;2022-09-09T05:39:05;4.13;;;2.03;;
13048;SDS011;6591;51.446;5.404;2022-09-09T05:41:33;3.80;;;1.90;;
13048;SDS011;6591;51.446;5.404;2022-09-09T05:44:02;4.97;;;1.70;;
13048;SDS011;6591;51.446;5.404;2022-09-09T05:46:34;4.43;;;1.85;;
13048;SDS011;6591;51.446;5.404;2022-09-09T05:49:02;4.00;;;1.90;;
13048;SDS011;6591;51.446;5.404;2022-09-09T05:51:33;2.57;;;1.80;;
13048;SDS011;6591;51.446;5.404;2022-09-09T05:54:05;3.30;;;1.90;;
13048;SDS011;6591;51.446;5.404;2022-09-09T05:56:37;4.15;;;2.00;;
13048;SDS011;6591;51.446;5.404;2022-09-09T05:59:06;3.60;;;1.57;;
13048;SDS011;6591;51.446;5.404;2022-09-09T06:01:34;4.90;;;1.90;;
13048;SDS011;6591;51.446;5.404;2022-09-09T06:04:09;3.63;;;1.67;;
13048;SDS011;6591;51.446;5.404;2022-09-09T06:06:38;5.78;;;2.17;;
13048;SDS011;6591;51.446;5.404;2022-09-09T06:09:12;5.60;;;1.60;;
13048;SDS011;6591;51.446;5.404;2022-09-09T06:11:41;5.00;;;1.73;;
13048;SDS011;6591;51.446;5.404;2022-09-09T06:14:10;5.30;;;2.03;;
13048;SDS011;6591;51.446;5.404;2022-09-09T06:16:39;5.88;;;2.65;;
13048;SDS011;6591;51.446;5.404;2022-09-09T06:19:16;5.25;;;2.05;;
13048;SDS011;6591;51.446;5.404;2022-09-09T06:21:43;5.57;;;2.00;;
13048;SDS011;6591;51.446;5.404;2022-09-09T06:24:11;3.97;;;2.15;;
13048;SDS011;6591;51.446;5.404;2022-09-09T06:26:40;3.25;;;1.90;;
13048;SDS011;6591;51.446;5.404;2022-09-09T06:29:11;5.35;;;1.92;;
13048;SDS011;6591;51.446;5.404;2022-09-09T06:31:40;2.92;;;1.83;;
13048;SDS011;6591;51.446;5.404;2022-09-09T06:34:14;4.22;;;2.10;;
13048;SDS011;6591;51.446;5.404;2022-09-09T06:36:45;4.32;;;2.10;;
13048;SDS011;6591;51.446;5.404;2022-09-09T06:40:02;3.60;;;1.60;;
13048;SDS011;6591;51.446;5.404;2022-09-09T06:42:30;2.85;;;1.83;;
13048;SDS011;6591;51.446;5.404;2022-09-09T06:45:20;5.15;;;2.15;;
13048;SDS011;6591;51.446;5.404;2022-09-09T06:47:54;4.00;;;1.92;;
13048;SDS011;6591;51.446;5.404;2022-09-09T06:50:23;4.82;;;2.20;;
13048;SDS011;6591;51.446;5.404;2022-09-09T06:52:50;4.70;;;2.20;;
13048;SDS011;6591;51.446;5.404;2022-09-09T06:55:17;6.25;;;2.00;;
13048;SDS011;6591;51.446;5.404;2022-09-09T06:57:45;3.95;;;1.98;;
13048;SDS011;6591;51.446;5.404;2022-09-09T07:00:17;5.40;;;2.35;;
13048;SDS011;6591;51.446;5.404;2022-09-09T07:02:44;5.80;;;1.85;;
13048;SDS011;6591;51.446;5.404;2022-09-09T07:05:12;4.45;;;1.90;;
13048;SDS011;6591;51.446;5.404;2022-09-09T07:07:41;3.80;;;1.83;;
13048;SDS011;6591;51.446;5.404;2022-09-09T07:10:10;5.95;;;2.17;;
13048;SDS011;6591;51.446;5.404;2022-09-09T07:12:38;5.53;;;2.13;;
13048;SDS011;6591;51.446;5.404;2022-09-09T07:15:09;5.88;;;2.17;;
13048;SDS011;6591;51.446;5.404;2022-09-09T07:17:39;4.65;;;1.92;;
13048;SDS011;6591;51.446;5.404;2022-09-09T07:20:06;4.90;;;1.88;;
13048;SDS011;6591;51.446;5.404;2022-09-09T07:22:34;7.05;;;2.00;;
13048;SDS011;6591;51.446;5.404;2022-09-09T07:25:01;3.25;;;1.85;;
13048;SDS011;6591;51.446;5.404;2022-09-09T07:27:33;6.90;;;2.22;;
13048;SDS011;6591;51.446;5.404;2022-09-09T07:30:00;4.93;;;1.88;;
13048;SDS011;6591;51.446;5.404;2022-09-09T07:32:31;3.92;;;1.60;;
13048;SDS011;6591;51.446;5.404;2022-09-09T07:35:00;3.97;;;1.92;;
13048;SDS011;6591;51.446;5.404;2022-09-09T07:37:32;5.88;;;1.83;;
13048;SDS011;6591;51.446;5.404;2022-09-09T07:40:02;4.03;;;1.67;;
13048;SDS011;6591;51.446;5.404;2022-09-09T07:42:31;4.82;;;2.33;;
13048;SDS011;6591;51.446;5.404;2022-09-09T07:45:00;3.95;;;1.67;;
13048;SDS011;6591;51.446;5.404;2022-09-09T07:47:27;4.75;;;1.70;;
13048;SDS011;6591;51.446;5.404;2022-09-09T07:49:55;4.63;;;1.80;;
13048;SDS011;6591;51.446;5.404;2022-09-09T07:52:28;3.10;;;1.63;;
13048;SDS011;6591;51.446;5.404;2022-09-09T07:54:59;6.07;;;1.95;;
13048;SDS011;6591;51.446;5.404;2022-09-09T07:57:30;5.47;;;1.92;;
13048;SDS011;6591;51.446;5.404;2022-09-09T07:59:57;3.72;;;1.85;;
13048;SDS011;6591;51.446;5.404;2022-09-09T08:02:24;3.83;;;1.60;;
13048;SDS011;6591;51.446;5.404;2022-09-09T08:04:54;4.55;;;2.03;;
13048;SDS011;6591;51.446;5.404;2022-09-09T08:07:23;5.07;;;1.77;;
13048;SDS011;6591;51.446;5.404;2022-09-09T08:09:53;4.88;;;1.58;;
13048;SDS011;6591;51.446;5.404;2022-09-09T08:12:26;6.43;;;2.03;;
13048;SDS011;6591;51.446;5.404;2022-09-09T08:14:54;4.45;;;1.65;;
13048;SDS011;6591;51.446;5.404;2022-09-09T08:17:25;4.43;;;1.77;;
13048;SDS011;6591;51.446;5.404;2022-09-09T08:19:52;5.35;;;1.80;;
13048;SDS011;6591;51.446;5.404;2022-09-09T08:22:23;3.80;;;1.50;;
13048;SDS011;6591;51.446;5.404;2022-09-09T08:24:51;5.05;;;1.80;;
13048;SDS011;6591;51.446;5.404;2022-09-09T08:27:18;3.72;;;1.70;;
13048;SDS011;6591;51.446;5.404;2022-09-09T08:29:46;4.40;;;1.65;;
13048;SDS011;6591;51.446;5.404;2022-09-09T08:32:13;3.13;;;1.70;;
13048;SDS011;6591;51.446;5.404;2022-09-09T08:34:40;4.97;;;1.70;;
13048;SDS011;6591;51.446;5.404;2022-09-09T08:37:17;6.28;;;1.90;;
13048;SDS011;6591;51.446;5.404;2022-09-09T08:39:46;4.35;;;1.50;;
13048;SDS011;6591;51.446;5.404;2022-09-09T08:51:10;3.63;;;1.63;;
13048;SDS011;6591;51.446;5.404;2022-09-09T08:53:43;3.80;;;2.10;;
13048;SDS011;6591;51.446;5.404;2022-09-09T08:56:16;4.28;;;1.67;;
13048;SDS011;6591;51.446;5.404;2022-09-09T08:58:53;4.80;;;2.03;;
13048;SDS011;6591;51.446;5.404;2022-09-09T09:04:45;3.88;;;1.50;;
13048;SDS011;6591;51.446;5.404;2022-09-09T09:07:58;4.13;;;1.55;;
13048;SDS011;6591;51.446;5.404;2022-09-09T09:10:51;5.72;;;1.75;;
13048;SDS011;6591;51.446;5.404;2022-09-09T09:16:31;5.22;;;1.50;;
13048;SDS011;6591;51.446;5.404;2022-09-09T09:19:11;4.18;;;1.52;;
13048;SDS011;6591;51.446;5.404;2022-09-09T09:28:30;6.60;;;1.73;;
13048;SDS011;6591;51.446;5.404;2022-09-09T09:31:08;2.75;;;1.50;;
13048;SDS011;6591;51.446;5.404;2022-09-09T09:36:24;3.55;;;1.63;;
13048;SDS011;6591;51.446;5.404;2022-09-09T09:42:11;4.32;;;1.70;;
13048;SDS011;6591;51.446;5.404;2022-09-09T09:44:46;4.20;;;1.55;;
13048;SDS011;6591;51.446;5.404;2022-09-09T09:47:20;3.83;;;1.50;;
13048;SDS011;6591;51.446;5.404;2022-09-09T09:50:17;3.58;;;1.55;;
13048;SDS011;6591;51.446;5.404;2022-09-09T09:52:56;5.57;;;1.60;;
13048;SDS011;6591;51.446;5.404;2022-09-09T09:55:29;4.05;;;1.70;;
13048;SDS011;6591;51.446;5.404;2022-09-09T09:58:00;3.90;;;1.67;;
13048;SDS011;6591;51.446;5.404;2022-09-09T10:00:33;3.03;;;1.65;;
13048;SDS011;6591;51.446;5.404;2022-09-09T10:03:24;3.03;;;1.40;;
13048;SDS011;6591;51.446;5.404;2022-09-09T10:06:00;3.28;;;1.30;;
13048;SDS011;6591;51.446;5.404;2022-09-09T10:08:27;3.70;;;1.50;;
13048;SDS011;6591;51.446;5.404;2022-09-09T10:14:28;4.18;;;1.63;;
13048;SDS011;6591;51.446;5.404;2022-09-09T10:17:24;4.82;;;1.67;;
13048;SDS011;6591;51.446;5.404;2022-09-09T10:23:02;5.30;;;1.50;;
13048;SDS011;6591;51.446;5.404;2022-09-09T10:26:05;5.57;;;1.60;;
13048;SDS011;6591;51.446;5.404;2022-09-09T10:38:13;3.05;;;1.52;;
13048;SDS011;6591;51.446;5.404;2022-09-09T10:41:12;3.22;;;1.58;;
13048;SDS011;6591;51.446;5.404;2022-09-09T10:46:49;4.03;;;1.40;;
13048;SDS011;6591;51.446;5.404;2022-09-09T10:55:39;2.78;;;1.45;;
13048;SDS011;6591;51.446;5.404;2022-09-09T10:58:17;4.72;;;1.75;;
13048;SDS011;6591;51.446;5.404;2022-09-09T11:01:01;4.20;;;1.92;;
13048;SDS011;6591;51.446;5.404;2022-09-09T11:03:50;4.43;;;1.67;;
13048;SDS011;6591;51.446;5.404;2022-09-09T11:06:34;3.92;;;2.00;;
13048;SDS011;6591;51.446;5.404;2022-09-09T11:09:11;5.20;;;2.05;;
13048;SDS011;6591;51.446;5.404;2022-09-09T11:11:46;4.25;;;1.73;;
13048;SDS011;6591;51.446;5.404;2022-09-09T11:14:42;2.92;;;1.60;;
13048;SDS011;6591;51.446;5.404;2022-09-09T11:17:19;3.00;;;1.30;;
13048;SDS011;6591;51.446;5.404;2022-09-09T11:20:04;5.25;;;1.65;;
13048;SDS011;6591;51.446;5.404;2022-09-09T11:22:34;3.15;;;1.60;;
13048;SDS011;6591;51.446;5.404;2022-09-09T11:25:18;2.63;;;1.45;;
13048;SDS011;6591;51.446;5.404;2022-09-09T11:28:04;4.40;;;1.60;;
13048;SDS011;6591;51.446;5.404;2022-09-09T11:40:03;2.17;;;1.25;;
13048;SDS011;6591;51.446;5.404;2022-09-09T11:42:44;2.85;;;1.40;;
13048;SDS011;6591;51.446;5.404;2022-09-09T11:45:24;3.13;;;1.80;;
13048;SDS011;6591;51.446;5.404;2022-09-09T11:47:56;2.88;;;1.40;;
13048;SDS011;6591;51.446;5.404;2022-09-09T11:55:47;2.97;;;1.58;;
13048;SDS011;6591;51.446;5.404;2022-09-09T11:58:38;2.13;;;1.33;;
13048;SDS011;6591;51.446;5.404;2022-09-09T12:01:29;2.80;;;1.60;;
13048;SDS011;6591;51.446;5.404;2022-09-09T12:06:42;2.28;;;1.50;;
13048;SDS011;6591;51.446;5.404;2022-09-09T12:09:17;3.70;;;1.33;;
13048;SDS011;6591;51.446;5.404;2022-09-09T12:11:51;3.63;;;1.67;;
13048;SDS011;6591;51.446;5.404;2022-09-09T12:14:19;4.45;;;1.50;;
13048;SDS011;6591;51.446;5.404;2022-09-09T12:19:42;3.45;;;1.50;;
13048;SDS011;6591;51.446;5.404;2022-09-09T12:34:02;3.05;;;1.60;;
13048;SDS011;6591;51.446;5.404;2022-09-09T12:36:59;4.18;;;1.48;;
13048;SDS011;6591;51.446;5.404;2022-09-09T12:39:47;3.22;;;1.42;;
13048;SDS011;6591;51.446;5.404;2022-09-09T12:42:47;3.30;;;1.45;;
13048;SDS011;6591;51.446;5.404;2022-09-09T12:45:18;5.55;;;1.70;;
13048;SDS011;6591;51.446;5.404;2022-09-09T12:47:54;1.83;;;1.20;;
13048;SDS011;6591;51.446;5.404;2022-09-09T12:53:26;3.35;;;1.70;;
13048;SDS011;6591;51.446;5.404;2022-09-09T12:56:08;3.70;;;1.30;;
13048;SDS011;6591;51.446;5.404;2022-09-09T12:58:48;5.55;;;2.00;;
13048;SDS011;6591;51.446;5.404;2022-09-09T13:01:25;2.80;;;1.42;;
13048;SDS011;6591;51.446;5.404;2022-09-09T13:03:55;3.00;;;1.17;;
13048;SDS011;6591;51.446;5.404;2022-09-09T13:06:29;2.22;;;1.30;;
13048;SDS011;6591;51.446;5.404;2022-09-09T13:08:59;1.88;;;1.20;;
13048;SDS011;6591;51.446;5.404;2022-09-09T13:14:02;3.17;;;1.50;;
13048;SDS011;6591;51.446;5.404;2022-09-09T13:16:31;3.25;;;1.30;;
13048;SDS011;6591;51.446;5.404;2022-09-09T13:19:09;2.67;;;1.27;;
13048;SDS011;6591;51.446;5.404;2022-09-09T13:21:42;2.20;;;1.15;;
13048;SDS011;6591;51.446;5.404;2022-09-09T13:30:00;2.17;;;1.25;;
13048;SDS011;6591;51.446;5.404;2022-09-09T13:32:28;3.53;;;1.38;;
13048;SDS011;6591;51.446;5.404;2022-09-09T13:34:56;2.53;;;1.00;;
13048;SDS011;6591;51.446;5.404;2022-09-09T13:37:36;2.53;;;1.15;;
13048;SDS011;6591;51.446;5.404;2022-09-09T13:40:17;2.80;;;1.10;;
13048;SDS011;6591;51.446;5.404;2022-09-09T13:42:50;2.20;;;1.17;;
13048;SDS011;6591;51.446;5.404;2022-09-09T13:45:23;3.40;;;1.50;;
13048;SDS011;6591;51.446;5.404;2022-09-09T13:47:53;1.58;;;1.10;;
13048;SDS011;6591;51.446;5.404;2022-09-09T13:50:23;2.28;;;1.25;;
13048;SDS011;6591;51.446;5.404;2022-09-09T13:52:56;2.53;;;1.02;;
13048;SDS011;6591;51.446;5.404;2022-09-09T13:55:26;2.30;;;1.50;;
13048;SDS011;6591;51.446;5.404;2022-09-09T13:57:56;2.17;;;1.10;;
13048;SDS011;6591;51.446;5.404;2022-09-09T14:00:30;2.70;;;1.02;;
13048;SDS011;6591;51.446;5.404;2022-09-09T14:03:00;4.95;;;1.35;;
13048;SDS011;6591;51.446;5.404;2022-09-09T14:05:31;3.63;;;1.17;;
13048;SDS011;6591;51.446;5.404;2022-09-09T14:08:00;2.45;;;1.40;;
13048;SDS011;6591;51.446;5.404;2022-09-09T14:10:30;4.97;;;1.33;;
13048;SDS011;6591;51.446;5.404;2022-09-09T14:12:59;1.88;;;1.15;;
13048;SDS011;6591;51.446;5.404;2022-09-09T14:15:27;3.40;;;1.45;;
13048;SDS011;6591;51.446;5.404;2022-09-09T14:17:55;2.05;;;1.10;;
13048;SDS011;6591;51.446;5.404;2022-09-09T14:20:22;1.83;;;1.10;;
13048;SDS011;6591;51.446;5.404;2022-09-09T14:22:49;2.13;;;1.10;;
13048;SDS011;6591;51.446;5.404;2022-09-09T14:25:16;2.20;;;1.23;;
13048;SDS011;6591;51.446;5.404;2022-09-09T14:27:43;1.70;;;0.95;;
13048;SDS011;6591;51.446;5.404;2022-09-09T14:30:12;2.97;;;1.23;;
13048;SDS011;6591;51.446;5.404;2022-09-09T14:32:39;2.83;;;1.20;;
13048;SDS011;6591;51.446;5.404;2022-09-09T14:35:06;3.47;;;1.15;;
13048;SDS011;6591;51.446;5.404;2022-09-09T14:37:33;2.90;;;1.15;;
13048;SDS011;6591;51.446;5.404;2022-09-09T14:40:00;1.55;;;1.10;;
13048;SDS011;6591;51.446;5.404;2022-09-09T14:42:28;2.35;;;1.00;;
13048;SDS011;6591;51.446;5.404;2022-09-09T14:44:56;2.60;;;1.17;;
13048;SDS011;6591;51.446;5.404;2022-09-09T14:47:23;3.28;;;1.30;;
13048;SDS011;6591;51.446;5.404;2022-09-09T14:49:50;1.30;;;0.73;;
13048;SDS011;6591;51.446;5.404;2022-09-09T14:52:18;1.70;;;1.15;;
13048;SDS011;6591;51.446;5.404;2022-09-09T14:54:45;2.10;;;0.95;;
13048;SDS011;6591;51.446;5.404;2022-09-09T14:57:12;2.45;;;1.05;;
13048;SDS011;6591;51.446;5.404;2022-09-09T14:59:39;1.85;;;1.08;;
13048;SDS011;6591;51.446;5.404;2022-09-09T15:02:07;4.05;;;1.20;;
13048;SDS011;6591;51.446;5.404;2022-09-09T15:04:37;2.08;;;1.00;;
13048;SDS011;6591;51.446;5.404;2022-09-09T15:07:04;2.38;;;1.10;;
13048;SDS011;6591;51.446;5.404;2022-09-09T15:09:31;3.63;;;1.15;;
13048;SDS011;6591;51.446;5.404;2022-09-09T15:11:59;1.90;;;1.10;;
13048;SDS011;6591;51.446;5.404;2022-09-09T15:14:27;2.10;;;0.95;;
13048;SDS011;6591;51.446;5.404;2022-09-09T15:16:54;1.77;;;0.85;;
13048;SDS011;6591;51.446;5.404;2022-09-09T15:19:21;2.80;;;1.00;;
13048;SDS011;6591;51.446;5.404;2022-09-09T15:21:48;4.07;;;1.10;;
13048;SDS011;6591;51.446;5.404;2022-09-09T15:24:15;1.30;;;0.90;;
13048;SDS011;6591;51.446;5.404;2022-09-09T15:26:43;1.35;;;0.95;;
13048;SDS011;6591;51.446;5.404;2022-09-09T15:29:10;2.13;;;0.88;;
13048;SDS011;6591;51.446;5.404;2022-09-09T15:31:37;1.35;;;0.80;;
13048;SDS011;6591;51.446;5.404;2022-09-09T15:34:05;1.63;;;1.10;;
13048;SDS011;6591;51.446;5.404;2022-09-09T15:36:34;0.60;;;0.60;;
13048;SDS011;6591;51.446;5.404;2022-09-09T15:39:07;0.65;;;0.30;;
13048;SDS011;6591;51.446;5.404;2022-09-09T15:41:42;0.60;;;0.50;;
13048;SDS011;6591;51.446;5.404;2022-09-09T15:44:14;0.80;;;0.52;;
13048;SDS011;6591;51.446;5.404;2022-09-09T15:46:48;2.15;;;0.80;;
13048;SDS011;6591;51.446;5.404;2022-09-09T15:49:17;0.90;;;0.57;;
13048;SDS011;6591;51.446;5.404;2022-09-09T15:54:24;0.52;;;0.52;;
13048;SDS011;6591;51.446;5.404;2022-09-09T15:56:54;0.50;;;0.50;;
13048;SDS011;6591;51.446;5.404;2022-09-09T15:59:25;0.65;;;0.60;;
13048;SDS011;6591;51.446;5.404;2022-09-09T16:01:55;0.88;;;0.60;;
13048;SDS011;6591;51.446;5.404;2022-09-09T16:04:25;2.22;;;0.60;;
13048;SDS011;6591;51.446;5.404;2022-09-09T16:06:56;0.60;;;0.60;;
13048;SDS011;6591;51.446;5.404;2022-09-09T16:09:27;2.58;;;0.70;;
13048;SDS011;6591;51.446;5.404;2022-09-09T16:11:56;0.85;;;0.70;;
13048;SDS011;6591;51.446;5.404;2022-09-09T16:14:27;0.52;;;0.52;;
13048;SDS011;6591;51.446;5.404;2022-09-09T16:16:55;1.13;;;0.70;;
13048;SDS011;6591;51.446;5.404;2022-09-09T16:19:23;1.60;;;0.70;;
13048;SDS011;6591;51.446;5.404;2022-09-09T16:21:50;1.25;;;0.80;;
13048;SDS011;6591;51.446;5.404;2022-09-09T16:24:18;0.80;;;0.70;;
13048;SDS011;6591;51.446;5.404;2022-09-09T16:26:47;2.00;;;0.90;;
13048;SDS011;6591;51.446;5.404;2022-09-09T16:29:17;1.55;;;1.08;;
13048;SDS011;6591;51.446;5.404;2022-09-09T16:31:45;1.25;;;1.00;;
13048;SDS011;6591;51.446;5.404;2022-09-09T16:34:16;0.90;;;0.75;;
13048;SDS011;6591;51.446;5.404;2022-09-09T16:36:45;1.98;;;1.08;;
13048;SDS011;6591;51.446;5.404;2022-09-09T16:39:15;2.60;;;1.25;;
13048;SDS011;6591;51.446;5.404;2022-09-09T16:41:46;1.67;;;1.00;;
13048;SDS011;6591;51.446;5.404;2022-09-09T16:44:16;1.50;;;0.77;;
13048;SDS011;6591;51.446;5.404;2022-09-09T16:46:45;2.08;;;0.80;;
13048;SDS011;6591;51.446;5.404;2022-09-09T16:49:26;1.08;;;0.60;;
13048;SDS011;6591;51.446;5.404;2022-09-09T16:51:57;1.23;;;0.50;;
13048;SDS011;6591;51.446;5.404;2022-09-09T16:54:27;1.10;;;0.63;;
13048;SDS011;6591;51.446;5.404;2022-09-09T16:56:55;1.10;;;0.90;;
13048;SDS011;6591;51.446;5.404;2022-09-09T16:59:25;4.60;;;0.70;;
13048;SDS011;6591;51.446;5.404;2022-09-09T17:01:52;1.52;;;0.73;;
13048;SDS011;6591;51.446;5.404;2022-09-09T17:04:22;0.68;;;0.55;;
13048;SDS011;6591;51.446;5.404;2022-09-09T17:06:57;0.82;;;0.50;;
13048;SDS011;6591;51.446;5.404;2022-09-09T17:09:47;0.43;;;0.43;;
13048;SDS011;6591;51.446;5.404;2022-09-09T17:12:14;2.60;;;0.70;;
13048;SDS011;6591;51.446;5.404;2022-09-09T17:14:43;1.23;;;0.63;;
13048;SDS011;6591;51.446;5.404;2022-09-09T17:17:11;0.88;;;0.60;;
13048;SDS011;6591;51.446;5.404;2022-09-09T17:19:57;0.95;;;0.73;;
13048;SDS011;6591;51.446;5.404;2022-09-09T17:22:27;1.63;;;0.70;;
13048;SDS011;6591;51.446;5.404;2022-09-09T17:24:54;1.10;;;0.80;;
13048;SDS011;6591;51.446;5.404;2022-09-09T17:27:21;2.85;;;1.10;;
13048;SDS011;6591;51.446;5.404;2022-09-09T17:29:48;0.90;;;0.80;;
13048;SDS011;6591;51.446;5.404;2022-09-09T17:32:15;2.35;;;1.00;;
13048;SDS011;6591;51.446;5.404;2022-09-09T17:34:42;1.30;;;1.00;;
13048;SDS011;6591;51.446;5.404;2022-09-09T17:37:09;1.05;;;0.95;;
13048;SDS011;6591;51.446;5.404;2022-09-09T17:39:36;1.42;;;0.90;;
13048;SDS011;6591;51.446;5.404;2022-09-09T17:42:03;1.20;;;1.10;;
13048;SDS011;6591;51.446;5.404;2022-09-09T17:44:30;1.13;;;1.00;;
13048;SDS011;6591;51.446;5.404;2022-09-09T17:46:58;1.58;;;1.10;;
13048;SDS011;6591;51.446;5.404;2022-09-09T17:49:26;2.17;;;1.15;;
13048;SDS011;6591;51.446;5.404;2022-09-09T17:51:53;1.52;;;1.00;;
13048;SDS011;6591;51.446;5.404;2022-09-09T17:54:21;1.20;;;1.10;;